Terminal Aerodrome Forecast
Issued by NWS Green Bay, WI

Home | Current Version | Previous Version | Text Only | Print | Product List | Glossary Off
Versions: 1 2 3 4 5 6 7 8 9 10 11 12 13 14 15 16 17 18 19 20 21 22 23 24 25 26 27 28 29 30 31 32 33

000
FTUS43 KGRB 221700
TAFGRB
TAF
KGRB 221738Z 2218/2318 24006KT P6SM FEW030
     FM230600 23012KT P6SM BKN200 WS020/25035KT
     FM231200 22013KT P6SM BKN100 WS020/25040KT
     FM231500 23014G30KT P6SM OVC050 WS020/26040KT=

USA.gov is the U.S. government's official web portal to all federal, state and local government web resources and services.